Time;durP1;ratioP1;P1;durP2;ratioP2;P2;SDS_P1;SDS_P2;PMS_P1;PMS_P2;Temp;Humidity;BMP_temperature;BMP_pressure;BME280_temperature;BME280_humidity;BME280_pressure;Samples;Min_cycle;Max_cycle;Signal;HPM_P1;HPM_P2
2022/07/06 00:00:55;;;;;;;3.85;1.40;;;17.60;91.80;;;;;;2080709;28;20056;-70
2022/07/06 00:01:56;;;;;;;2.25;1.10;;;17.50;91.80;;;;;;2079892;28;20110;-70
2022/07/06 00:02:56;;;;;;;1.40;1.10;;;17.50;90.80;;;;;;2080014;28;20014;-70
2022/07/06 00:03:57;;;;;;;1.52;1.00;;;17.50;91.30;;;;;;2080849;28;20017;-70
2022/07/06 00:04:58;;;;;;;2.50;1.38;;;17.50;91.50;;;;;;2080088;28;20022;-70
2022/07/06 00:05:59;;;;;;;3.92;1.60;;;17.50;91.60;;;;;;2076366;28;20075;-70
2022/07/06 00:06:59;;;;;;;2.58;1.50;;;17.50;91.70;;;;;;2080804;28;20025;-70
2022/07/06 00:08:00;;;;;;;3.50;1.38;;;17.50;91.50;;;;;;2079237;28;20052;-70
2022/07/06 00:09:02;;;;;;;2.90;1.30;;;17.50;91.50;;;;;;2079437;28;20022;-70
2022/07/06 00:10:03;;;;;;;2.45;1.10;;;17.50;91.00;;;;;;2076531;28;20030;-70
2022/07/06 00:11:04;;;;;;;2.25;1.27;;;17.50;91.40;;;;;;2080969;28;20039;-70
2022/07/06 00:12:05;;;;;;;3.08;1.38;;;17.50;92.10;;;;;;2079525;28;20018;-70
2022/07/06 00:13:05;;;;;;;4.13;1.38;;;17.50;92.10;;;;;;2080324;28;20848;-70
2022/07/06 00:14:06;;;;;;;2.03;1.15;;;17.50;91.80;;;;;;2078843;28;20039;-70
2022/07/06 00:15:07;;;;;;;3.08;1.60;;;17.50;92.20;;;;;;2078806;28;20028;-70
2022/07/06 00:16:08;;;;;;;3.00;1.50;;;17.50;91.90;;;;;;2078086;28;20781;-70
2022/07/06 00:17:08;;;;;;;2.25;1.45;;;17.40;92.20;;;;;;2081941;28;20021;-70
2022/07/06 00:18:09;;;;;;;3.70;1.50;;;17.50;92.40;;;;;;2079809;28;20052;-70
2022/07/06 00:19:09;;;;;;;4.43;1.25;;;17.40;92.70;;;;;;2079356;28;20075;-70
2022/07/06 00:20:10;;;;;;;3.13;1.45;;;17.40;92.70;;;;;;2077495;28;20092;-70
2022/07/06 00:21:11;;;;;;;4.55;1.50;;;17.40;92.80;;;;;;2079766;28;20037;-70
2022/07/06 00:22:12;;;;;;;2.45;1.55;;;17.40;92.60;;;;;;2079904;28;20033;-70
2022/07/06 00:23:12;;;;;;;4.32;1.23;;;17.40;91.80;;;;;;2078725;28;20037;-70
2022/07/06 00:24:13;;;;;;;3.15;1.40;;;17.40;91.90;;;;;;2078678;28;20061;-70
2022/07/06 00:25:16;;;;;;;2.08;1.05;;;17.50;91.90;;;;;;2076468;28;20025;-70
2022/07/06 00:26:16;;;;;;;3.00;1.50;;;17.50;91.10;;;;;;2078055;28;20539;-70
2022/07/06 00:27:17;;;;;;;4.53;1.70;;;17.50;92.30;;;;;;2078508;28;20522;-70
2022/07/06 00:28:18;;;;;;;3.65;1.50;;;17.50;91.60;;;;;;2071097;28;20037;-70
2022/07/06 00:29:18;;;;;;;3.20;1.52;;;17.50;92.30;;;;;;2069108;28;20060;-70
2022/07/06 00:30:19;;;;;;;1.63;1.27;;;17.40;92.60;;;;;;2080670;28;20033;-70
2022/07/06 00:31:20;;;;;;;4.70;1.35;;;17.40;92.80;;;;;;2077031;28;20022;-70
2022/07/06 00:32:20;;;;;;;4.38;1.65;;;17.40;92.40;;;;;;2075734;28;20029;-70
2022/07/06 00:33:21;;;;;;;2.50;1.20;;;17.40;92.90;;;;;;2082459;28;20041;-70
2022/07/06 00:34:21;;;;;;;5.63;1.60;;;17.30;92.80;;;;;;2079078;28;20457;-70
2022/07/06 00:35:22;;;;;;;3.40;1.60;;;17.30;93.20;;;;;;2077782;28;20047;-70
2022/07/06 00:36:23;;;;;;;3.40;1.50;;;17.30;93.40;;;;;;2080283;28;20029;-70
2022/07/06 00:37:23;;;;;;;2.75;1.27;;;17.30;92.40;;;;;;2078996;28;20037;-70
2022/07/06 00:38:24;;;;;;;3.28;1.70;;;17.30;92.00;;;;;;2078775;28;20435;-70
2022/07/06 00:39:28;;;;;;;2.35;1.13;;;17.30;92.60;;;;;;2077976;28;20032;-70
2022/07/06 00:40:29;;;;;;;2.60;1.35;;;17.40;92.30;;;;;;2080083;28;20009;-71
2022/07/06 00:41:30;;;;;;;4.68;1.13;;;17.40;92.90;;;;;;2081180;28;20017;-70
2022/07/06 00:42:39;;;;;;;2.35;1.02;;;17.40;92.50;;;;;;2079217;28;20533;-70
2022/07/06 00:43:51;;;;;;;5.05;1.40;;;17.40;93.10;;;;;;2078000;28;20105;-70
2022/07/06 00:44:51;;;;;;;4.88;1.88;;;17.40;93.40;;;;;;2079524;28;20485;-70
2022/07/06 00:45:52;;;;;;;1.75;1.20;;;17.40;92.80;;;;;;2077196;28;20413;-70
2022/07/06 00:46:52;;;;;;;3.17;1.30;;;17.30;92.70;;;;;;2076418;28;20024;-70
2022/07/06 00:47:53;;;;;;;3.88;1.40;;;17.30;92.90;;;;;;2079782;28;20021;-70
2022/07/06 00:48:54;;;;;;;3.92;1.40;;;17.30;93.20;;;;;;2081940;28;20053;-70
2022/07/06 00:51:14;;;;;;;3.92;1.73;;;17.30;93.50;;;;;;2081270;28;20037;-70
2022/07/06 00:52:15;;;;;;;1.65;1.17;;;17.20;93.50;;;;;;2077964;28;20439;-70
2022/07/06 00:53:16;;;;;;;3.13;1.27;;;17.20;93.60;;;;;;2081790;28;20028;-70
2022/07/06 00:54:17;;;;;;;2.35;1.52;;;17.20;93.60;;;;;;2077075;28;20052;-70
2022/07/06 00:55:21;;;;;;;1.45;1.20;;;17.20;93.70;;;;;;2076893;28;20037;-70
2022/07/06 00:56:22;;;;;;;1.90;1.20;;;17.20;93.70;;;;;;2078244;28;20029;-70
2022/07/06 00:57:23;;;;;;;2.22;1.42;;;17.20;93.70;;;;;;2078669;28;20486;-70
2022/07/06 00:58:24;;;;;;;4.20;1.38;;;17.10;93.10;;;;;;2077858;28;20374;-70
2022/07/06 00:59:27;;;;;;;2.83;1.50;;;17.20;93.30;;;;;;2081575;28;20025;-70
2022/07/06 01:00:28;;;;;;;4.10;1.38;;;17.20;93.10;;;;;;2077683;28;20076;-70
2022/07/06 01:01:29;;;;;;;2.42;1.23;;;17.10;93.50;;;;;;2078885;28;20025;-70
2022/07/06 01:02:31;;;;;;;3.47;1.10;;;17.20;93.30;;;;;;2077381;28;20032;-70
2022/07/06 01:03:32;;;;;;;3.53;1.38;;;17.20;93.50;;;;;;2078519;28;20032;-70
2022/07/06 01:04:33;;;;;;;4.07;1.27;;;17.20;93.30;;;;;;2079689;28;20473;-70
2022/07/06 01:05:33;;;;;;;2.80;1.50;;;17.20;93.00;;;;;;2077144;28;20096;-70
2022/07/06 01:06:34;;;;;;;4.03;1.40;;;17.20;93.60;;;;;;2080279;28;20026;-70
2022/07/06 01:07:36;;;;;;;2.83;1.25;;;17.20;93.60;;;;;;2080192;28;20723;-70
2022/07/06 01:08:38;;;;;;;4.45;1.50;;;17.20;93.60;;;;;;2070135;28;20028;-70
2022/07/06 01:09:39;;;;;;;1.65;1.23;;;17.20;93.30;;;;;;2069643;28;20073;-70
2022/07/06 01:10:40;;;;;;;2.75;1.38;;;17.20;92.70;;;;;;2077929;28;20118;-70
2022/07/06 01:11:40;;;;;;;2.30;1.15;;;17.20;93.30;;;;;;2079664;28;20043;-70
2022/07/06 01:12:43;;;;;;;2.00;1.10;;;17.30;92.90;;;;;;2080025;28;20516;-70
2022/07/06 01:13:44;;;;;;;1.73;1.20;;;17.30;93.50;;;;;;2077794;28;20026;-70
2022/07/06 01:14:45;;;;;;;1.88;1.10;;;17.30;93.00;;;;;;2079961;28;20112;-70
2022/07/06 01:15:46;;;;;;;2.65;1.35;;;17.30;93.10;;;;;;2077587;28;20036;-70
2022/07/06 01:16:47;;;;;;;2.85;1.40;;;17.30;93.60;;;;;;2077754;28;20497;-70
2022/07/06 01:17:48;;;;;;;4.78;1.73;;;17.30;94.20;;;;;;2080548;28;20117;-70
2022/07/06 01:18:49;;;;;;;3.33;1.83;;;17.30;93.90;;;;;;2078025;28;20079;-70
2022/07/06 01:19:50;;;;;;;2.58;1.42;;;17.40;93.80;;;;;;2078573;28;20084;-70
2022/07/06 01:20:50;;;;;;;1.67;1.30;;;17.30;93.50;;;;;;2078752;28;20049;-70
2022/07/06 01:21:51;;;;;;;4.82;1.45;;;17.30;93.80;;;;;;2079949;28;20021;-70
2022/07/06 01:22:53;;;;;;;2.65;1.27;;;17.30;93.50;;;;;;2076903;28;20026;-70
2022/07/06 01:23:54;;;;;;;2.33;1.23;;;17.40;93.80;;;;;;2080508;28;20025;-70
2022/07/06 01:24:54;;;;;;;3.08;1.35;;;17.30;92.80;;;;;;2078371;28;20025;-70
2022/07/06 01:25:55;;;;;;;2.40;1.42;;;17.40;93.40;;;;;;2078982;28;20108;-70
2022/07/06 01:26:57;;;;;;;2.88;1.08;;;17.30;92.30;;;;;;2077915;28;20039;-70
2022/07/06 01:27:57;;;;;;;2.50;1.60;;;17.40;91.60;;;;;;2076691;28;20022;-70
2022/07/06 01:28:58;;;;;;;3.50;1.52;;;17.40;91.70;;;;;;2073769;28;20022;-70
2022/07/06 01:29:59;;;;;;;4.40;1.58;;;17.30;92.00;;;;;;2070027;28;20026;-70
2022/07/06 01:30:59;;;;;;;3.67;1.77;;;17.30;92.90;;;;;;2077342;28;20041;-70
2022/07/06 01:32:01;;;;;;;6.80;1.58;;;17.30;93.40;;;;;;2079615;28;20025;-70
2022/07/06 01:33:01;;;;;;;3.97;1.70;;;17.30;92.10;;;;;;2079495;28;20055;-70
2022/07/06 01:34:02;;;;;;;4.18;1.38;;;17.30;93.20;;;;;;2068907;28;20466;-70
2022/07/06 01:35:05;;;;;;;2.55;1.55;;;17.30;93.30;;;;;;2069785;28;20109;-70
2022/07/06 01:36:06;;;;;;;3.13;1.38;;;17.30;93.00;;;;;;2077073;28;20108;-70
2022/07/06 01:37:06;;;;;;;2.58;1.30;;;17.30;93.50;;;;;;2078378;28;20539;-70
2022/07/06 01:38:07;;;;;;;3.30;1.85;;;17.30;93.50;;;;;;2079627;28;20028;-70
2022/07/06 01:39:08;;;;;;;4.20;1.25;;;17.30;93.40;;;;;;2080796;28;20029;-70
2022/07/06 01:40:11;;;;;;;3.45;1.65;;;17.30;92.60;;;;;;2080468;28;20716;-70
2022/07/06 01:41:12;;;;;;;2.25;1.40;;;17.30;93.20;;;;;;2077874;28;20032;-70
2022/07/06 01:42:12;;;;;;;2.63;1.13;;;17.30;92.50;;;;;;2069055;28;20033;-70
2022/07/06 01:43:13;;;;;;;2.85;1.38;;;17.30;93.30;;;;;;2064889;28;20033;-70
2022/07/06 01:44:13;;;;;;;2.30;1.30;;;17.30;93.60;;;;;;2080166;28;20032;-70
2022/07/06 01:45:14;;;;;;;4.20;1.42;;;17.30;92.60;;;;;;2076075;28;20021;-71
2022/07/06 01:46:15;;;;;;;3.10;1.20;;;17.30;93.10;;;;;;2079411;28;20025;-70
2022/07/06 01:47:16;;;;;;;4.13;1.30;;;17.30;92.80;;;;;;2080347;28;20027;-70
2022/07/06 01:48:16;;;;;;;2.08;1.20;;;17.30;92.60;;;;;;2080168;28;20485;-70
2022/07/06 01:49:17;;;;;;;1.90;1.33;;;17.30;92.30;;;;;;2079675;28;20041;-70
2022/07/06 01:50:17;;;;;;;1.73;1.02;;;17.30;92.60;;;;;;2078956;28;20052;-70
2022/07/06 01:51:18;;;;;;;3.38;1.17;;;17.30;93.60;;;;;;2077088;28;20050;-70
2022/07/06 01:52:19;;;;;;;2.83;1.40;;;17.30;92.90;;;;;;2081633;28;20029;-70
2022/07/06 01:53:19;;;;;;;2.55;1.13;;;17.30;93.60;;;;;;2078525;28;20400;-70
2022/07/06 01:54:20;;;;;;;3.30;1.20;;;17.20;92.00;;;;;;2078503;28;20533;-70
2022/07/06 01:55:20;;;;;;;1.65;1.20;;;17.20;91.80;;;;;;2070421;28;20718;-70
2022/07/06 01:56:21;;;;;;;4.18;1.50;;;17.20;92.40;;;;;;2070947;28;20038;-70
2022/07/06 01:57:22;;;;;;;2.47;1.25;;;17.20;93.50;;;;;;2077508;28;20026;-70
2022/07/06 01:58:22;;;;;;;1.15;1.05;;;17.20;92.80;;;;;;2078105;28;20061;-70
2022/07/06 01:59:23;;;;;;;1.38;1.00;;;17.20;92.10;;;;;;2079623;28;20025;-70
2022/07/06 02:00:24;;;;;;;4.15;1.67;;;17.20;91.40;;;;;;2079937;28;20590;-70
2022/07/06 02:01:24;;;;;;;2.70;1.30;;;17.20;92.50;;;;;;2077900;28;20053;-70
2022/07/06 02:02:25;;;;;;;2.50;1.38;;;17.20;92.50;;;;;;2078183;28;20022;-70
2022/07/06 02:03:25;;;;;;;2.42;1.08;;;17.20;93.10;;;;;;2075940;28;20477;-70
2022/07/06 02:04:26;;;;;;;3.75;1.25;;;17.10;92.80;;;;;;2077615;28;20025;-70
2022/07/06 02:05:27;;;;;;;2.95;1.38;;;17.10;93.10;;;;;;2079252;28;20104;-70
2022/07/06 02:06:27;;;;;;;1.88;1.20;;;17.10;92.30;;;;;;2078910;28;20036;-70
2022/07/06 02:07:28;;;;;;;1.55;0.98;;;17.10;93.40;;;;;;2079639;28;20025;-70
2022/07/06 02:08:29;;;;;;;1.85;0.98;;;17.10;93.60;;;;;;2076924;28;20375;-70
2022/07/06 02:09:29;;;;;;;1.80;1.02;;;17.00;93.50;;;;;;2078717;28;20030;-70
2022/07/06 02:10:30;;;;;;;1.98;1.27;;;17.00;94.10;;;;;;2077029;28;20084;-70
2022/07/06 02:11:30;;;;;;;2.38;1.42;;;17.00;94.30;;;;;;2080315;28;20113;-70
2022/07/06 02:12:31;;;;;;;1.80;1.13;;;17.00;93.60;;;;;;2076782;28;20104;-70
2022/07/06 02:13:32;;;;;;;1.48;1.20;;;17.00;93.80;;;;;;2078753;28;20045;-70
2022/07/06 02:14:32;;;;;;;3.22;1.33;;;16.90;92.80;;;;;;2078736;28;20547;-70
2022/07/06 02:15:33;;;;;;;2.05;1.45;;;16.90;94.30;;;;;;2081548;28;20056;-70
2022/07/06 02:16:35;;;;;;;2.92;1.40;;;16.90;94.30;;;;;;2078362;28;20033;-70
2022/07/06 02:17:35;;;;;;;3.13;1.48;;;16.90;93.70;;;;;;2076597;28;20018;-70
2022/07/06 02:18:36;;;;;;;3.28;1.42;;;16.90;93.70;;;;;;2075940;28;20030;-70
2022/07/06 02:19:37;;;;;;;2.90;1.25;;;16.80;94.60;;;;;;2078661;28;20036;-70
2022/07/06 02:20:37;;;;;;;3.65;1.60;;;16.80;94.50;;;;;;2079875;28;20400;-70
2022/07/06 02:21:38;;;;;;;3.08;1.35;;;16.80;93.60;;;;;;2079764;28;20077;-70
2022/07/06 02:22:39;;;;;;;1.48;1.02;;;16.80;93.80;;;;;;2079756;28;20068;-70
2022/07/06 02:23:39;;;;;;;2.53;1.55;;;16.80;94.10;;;;;;2081944;28;20025;-70
2022/07/06 02:24:40;;;;;;;4.20;1.48;;;16.80;94.30;;;;;;2079812;28;20071;-70
2022/07/06 02:25:40;;;;;;;2.47;1.35;;;16.80;94.50;;;;;;2080851;28;20021;-70
2022/07/06 02:26:41;;;;;;;1.88;1.27;;;16.70;94.00;;;;;;2078946;28;20032;-70
2022/07/06 02:27:42;;;;;;;3.60;1.60;;;16.70;94.00;;;;;;2081113;28;20029;-70
2022/07/06 02:28:42;;;;;;;3.78;1.70;;;16.70;93.50;;;;;;2078851;28;20019;-70
2022/07/06 02:29:43;;;;;;;1.73;1.13;;;16.70;94.00;;;;;;2080479;28;20033;-70
2022/07/06 02:30:43;;;;;;;1.58;1.20;;;16.70;93.10;;;;;;2079918;28;20393;-70
2022/07/06 02:31:44;;;;;;;2.00;1.30;;;16.70;93.00;;;;;;2079347;28;20631;-70
2022/07/06 02:32:45;;;;;;;1.50;1.25;;;16.60;94.10;;;;;;2078377;28;20026;-70
2022/07/06 02:33:45;;;;;;;2.85;1.25;;;16.60;94.00;;;;;;2078675;28;20034;-70
2022/07/06 02:34:46;;;;;;;1.77;1.30;;;16.60;94.50;;;;;;2080751;28;20029;-70
2022/07/06 02:35:46;;;;;;;3.15;1.40;;;16.60;94.00;;;;;;2078861;28;20405;-70
2022/07/06 02:36:47;;;;;;;2.45;1.30;;;16.50;94.40;;;;;;2079308;28;20395;-70
2022/07/06 02:37:48;;;;;;;2.17;1.10;;;16.60;94.30;;;;;;2080584;28;20530;-70
2022/07/06 02:38:48;;;;;;;4.70;1.55;;;16.60;94.70;;;;;;2080020;28;20029;-70
2022/07/06 02:39:49;;;;;;;5.28;1.85;;;16.50;95.30;;;;;;2080908;28;20032;-70
2022/07/06 02:40:49;;;;;;;1.88;1.20;;;16.50;95.40;;;;;;2077925;28;20026;-70
2022/07/06 02:41:50;;;;;;;6.95;1.70;;;16.50;95.30;;;;;;2078726;28;20025;-70
2022/07/06 02:42:51;;;;;;;1.50;1.30;;;16.50;95.70;;;;;;2081090;28;20025;-70
2022/07/06 02:43:51;;;;;;;2.75;1.30;;;16.40;96.00;;;;;;2078037;28;20025;-70
2022/07/06 02:44:53;;;;;;;2.40;1.38;;;16.40;96.40;;;;;;2079672;28;20065;-70
2022/07/06 02:45:54;;;;;;;2.08;1.45;;;16.40;96.40;;;;;;2080641;28;20509;-70
2022/07/06 02:46:54;;;;;;;2.22;1.35;;;16.40;96.50;;;;;;2079297;28;20091;-70
2022/07/06 02:47:56;;;;;;;2.85;1.40;;;16.30;96.10;;;;;;2078249;28;20469;-70
2022/07/06 02:48:57;;;;;;;2.10;1.40;;;16.30;96.60;;;;;;2078277;28;20780;-70
2022/07/06 02:49:57;;;;;;;2.78;1.35;;;16.30;97.10;;;;;;2078724;28;20049;-70
2022/07/06 02:50:58;;;;;;;2.53;1.40;;;16.30;96.90;;;;;;2082456;28;20025;-70
2022/07/06 02:51:59;;;;;;;1.73;1.15;;;16.20;97.20;;;;;;2078365;28;20075;-70
2022/07/06 02:53:01;;;;;;;2.13;1.40;;;16.20;97.00;;;;;;2079781;28;20108;-70
2022/07/06 02:54:02;;;;;;;2.38;1.15;;;16.20;97.50;;;;;;2080059;28;20400;-70
2022/07/06 02:55:02;;;;;;;3.28;1.63;;;16.20;97.80;;;;;;2080325;28;20033;-70
2022/07/06 02:56:03;;;;;;;4.47;1.40;;;16.10;97.80;;;;;;2079460;28;20026;-70
2022/07/06 02:57:04;;;;;;;5.60;1.30;;;16.10;97.90;;;;;;2080720;28;20033;-70
2022/07/06 02:58:04;;;;;;;4.40;1.65;;;16.10;98.10;;;;;;2077708;28;20021;-70
2022/07/06 02:59:05;;;;;;;4.10;1.40;;;16.10;97.90;;;;;;2081456;28;20445;-70
2022/07/06 03:00:06;;;;;;;4.00;1.50;;;16.10;97.90;;;;;;2076127;28;20638;-70
2022/07/06 03:01:07;;;;;;;1.80;1.30;;;16.00;98.50;;;;;;2080194;28;20484;-70
2022/07/06 03:02:07;;;;;;;3.03;1.65;;;16.00;98.90;;;;;;2078620;28;20747;-70
2022/07/06 03:03:09;;;;;;;3.33;1.33;;;16.00;99.30;;;;;;2078877;28;20049;-70
2022/07/06 03:04:09;;;;;;;2.60;1.35;;;16.00;99.10;;;;;;2080462;28;20028;-70
2022/07/06 03:05:10;;;;;;;3.25;1.40;;;15.90;99.30;;;;;;2079819;28;20023;-70
2022/07/06 03:06:10;;;;;;;5.15;1.63;;;15.90;99.50;;;;;;2078327;28;20112;-70
2022/07/06 03:07:11;;;;;;;3.97;1.40;;;15.90;99.90;;;;;;2079894;28;20034;-70
2022/07/06 03:08:12;;;;;;;4.47;1.40;;;15.90;99.40;;;;;;2080033;28;20031;-70
2022/07/06 03:09:12;;;;;;;3.10;1.70;;;15.90;99.90;;;;;;2080094;28;20490;-70
2022/07/06 03:10:13;;;;;;;5.38;1.67;;;15.80;99.20;;;;;;2079503;28;20397;-70
2022/07/06 03:11:13;;;;;;;2.28;1.38;;;15.80;98.90;;;;;;2080905;28;20156;-70
2022/07/06 03:12:15;;;;;;;2.13;1.20;;;15.80;99.70;;;;;;2079781;28;20041;-70
2022/07/06 03:13:16;;;;;;;1.67;1.20;;;15.80;99.90;;;;;;2078324;28;20061;-70
2022/07/06 03:14:17;;;;;;;5.65;2.03;;;15.80;99.90;;;;;;2079011;28;20033;-70
2022/07/06 03:15:17;;;;;;;1.92;1.70;;;15.70;99.90;;;;;;2078826;28;20031;-70
2022/07/06 03:16:18;;;;;;;3.08;1.60;;;15.70;99.90;;;;;;2081445;28;20104;-70
2022/07/06 03:17:18;;;;;;;2.20;1.10;;;15.70;99.90;;;;;;2078416;28;20029;-70
2022/07/06 03:18:19;;;;;;;2.03;1.35;;;15.70;99.90;;;;;;2080074;28;20051;-70
2022/07/06 03:19:20;;;;;;;8.55;1.83;;;15.70;99.90;;;;;;2076002;28;20018;-70
2022/07/06 03:20:20;;;;;;;2.30;1.60;;;15.70;99.90;;;;;;2078994;28;20029;-70
2022/07/06 03:21:21;;;;;;;1.88;1.75;;;15.70;99.90;;;;;;2078534;28;20124;-70
2022/07/06 03:22:22;;;;;;;1.80;1.35;;;15.60;99.90;;;;;;2079451;28;20049;-70
2022/07/06 03:23:22;;;;;;;2.85;1.33;;;15.60;99.90;;;;;;2078926;28;20121;-70
2022/07/06 03:24:23;;;;;;;2.30;1.20;;;15.60;99.90;;;;;;2080490;28;20017;-70
2022/07/06 03:25:23;;;;;;;5.85;1.85;;;15.60;99.90;;;;;;2078225;28;20030;-70
2022/07/06 03:26:24;;;;;;;3.80;2.10;;;15.60;99.90;;;;;;2080650;28;20044;-70
2022/07/06 03:27:24;;;;;;;3.55;1.65;;;15.60;99.90;;;;;;2079407;28;20021;-70
2022/07/06 03:28:25;;;;;;;1.88;1.45;;;15.60;99.90;;;;;;2081926;28;20389;-70
2022/07/06 03:29:26;;;;;;;2.58;1.42;;;15.50;99.90;;;;;;2078784;28;20037;-70
2022/07/06 03:30:26;;;;;;;4.05;1.73;;;15.60;99.90;;;;;;2077681;28;20035;-70
2022/07/06 03:31:27;;;;;;;3.50;1.88;;;15.50;99.90;;;;;;2078962;28;20013;-70
2022/07/06 03:32:27;;;;;;;2.53;1.80;;;15.50;99.90;;;;;;2079706;28;20021;-70
2022/07/06 03:33:28;;;;;;;2.20;1.30;;;15.50;99.90;;;;;;2078158;28;20418;-70
2022/07/06 03:34:29;;;;;;;3.53;1.50;;;15.50;99.90;;;;;;2079820;28;20100;-70
2022/07/06 03:35:29;;;;;;;3.22;1.60;;;15.50;99.90;;;;;;2080022;28;20040;-70
2022/07/06 03:36:30;;;;;;;3.60;1.45;;;15.50;99.90;;;;;;2080314;28;20022;-70
2022/07/06 03:37:30;;;;;;;2.85;1.98;;;15.50;99.90;;;;;;2078722;28;20071;-70
2022/07/06 03:38:31;;;;;;;3.03;1.80;;;15.50;99.90;;;;;;2079271;28;20028;-70
2022/07/06 03:39:32;;;;;;;2.47;1.73;;;15.50;99.90;;;;;;2081140;28;20037;-70
2022/07/06 03:40:33;;;;;;;2.65;1.65;;;15.50;99.90;;;;;;2077230;28;20022;-70
2022/07/06 03:41:34;;;;;;;4.68;2.65;;;15.50;99.90;;;;;;2077699;28;20108;-70
2022/07/06 03:42:36;;;;;;;8.13;2.58;;;15.50;99.90;;;;;;2079258;28;20018;-70
2022/07/06 03:43:37;;;;;;;2.83;1.60;;;15.50;99.90;;;;;;2079979;28;20385;-70
2022/07/06 03:44:38;;;;;;;3.67;1.83;;;15.50;99.90;;;;;;2080892;28;20018;-70
2022/07/06 03:45:38;;;;;;;5.28;1.85;;;15.50;99.90;;;;;;2075574;28;20029;-70
2022/07/06 03:46:39;;;;;;;3.67;1.90;;;15.50;99.90;;;;;;2079892;28;20025;-70
2022/07/06 03:47:40;;;;;;;2.80;1.70;;;15.50;99.90;;;;;;2078849;28;20025;-70
2022/07/06 03:48:40;;;;;;;3.72;1.67;;;15.50;99.90;;;;;;2078007;28;20022;-70
2022/07/06 03:49:41;;;;;;;3.47;1.52;;;15.60;99.90;;;;;;2079393;28;20029;-70
2022/07/06 03:50:42;;;;;;;3.75;1.63;;;15.50;99.90;;;;;;2080723;28;20036;-70
2022/07/06 03:51:42;;;;;;;5.35;1.92;;;15.50;99.90;;;;;;2080094;28;20544;-70
2022/07/06 03:52:43;;;;;;;4.82;1.63;;;15.60;99.90;;;;;;2080711;28;20104;-70
2022/07/06 03:53:43;;;;;;;3.38;1.42;;;15.60;99.90;;;;;;2081167;28;20029;-70
2022/07/06 03:54:44;;;;;;;1.73;1.33;;;15.60;99.90;;;;;;2077857;28;20393;-70
2022/07/06 03:56:27;;;;;;;3.72;1.98;;;15.60;99.90;;;;;;2079569;28;20395;-70
2022/07/06 03:57:05;;;;;;;1.60;1.42;;;15.60;99.90;;;;;;2078617;28;20069;-70
2022/07/06 03:58:05;;;;;;;3.03;2.00;;;15.60;99.90;;;;;;2080503;28;20033;-70
2022/07/06 03:59:06;;;;;;;3.10;1.63;;;15.60;99.90;;;;;;2081081;28;20105;-70
2022/07/06 04:00:08;;;;;;;2.65;1.70;;;15.60;99.90;;;;;;2079106;28;20097;-70
2022/07/06 04:01:09;;;;;;;2.90;1.58;;;15.60;99.90;;;;;;2077210;28;20219;-70
2022/07/06 04:02:09;;;;;;;2.25;1.40;;;15.60;99.90;;;;;;2079985;28;20025;-70
2022/07/06 04:03:10;;;;;;;3.30;1.80;;;15.60;99.90;;;;;;2078382;28;20017;-70
2022/07/06 04:04:10;;;;;;;3.42;1.70;;;15.70;99.90;;;;;;2071267;28;20014;-70
2022/07/06 04:05:11;;;;;;;5.47;2.00;;;15.70;99.90;;;;;;2069429;28;20790;-70
2022/07/06 04:06:12;;;;;;;2.08;1.75;;;15.70;99.90;;;;;;2078465;28;20393;-70
2022/07/06 04:07:13;;;;;;;3.63;1.80;;;15.70;99.90;;;;;;2081224;28;20041;-70
2022/07/06 04:08:14;;;;;;;5.35;1.98;;;15.70;99.90;;;;;;2080489;28;20468;-70
2022/07/06 04:09:14;;;;;;;6.30;2.50;;;15.70;99.90;;;;;;2076886;28;20462;-70
2022/07/06 04:10:16;;;;;;;4.88;1.98;;;15.70;99.90;;;;;;2077513;28;20030;-70
2022/07/06 04:11:16;;;;;;;3.78;1.73;;;15.70;99.90;;;;;;2079351;28;20037;-70
2022/07/06 04:12:17;;;;;;;2.33;1.80;;;15.80;99.90;;;;;;2080224;28;20032;-70
2022/07/06 04:13:18;;;;;;;4.43;1.95;;;15.80;99.90;;;;;;2079120;28;20025;-70
2022/07/06 04:14:18;;;;;;;4.60;1.80;;;15.80;99.90;;;;;;2081101;28;20049;-70
2022/07/06 04:15:19;;;;;;;3.45;1.95;;;15.80;99.90;;;;;;2077958;28;20025;-70
2022/07/06 04:16:19;;;;;;;2.10;1.60;;;15.90;99.90;;;;;;2079113;28;20029;-70
2022/07/06 04:18:39;;;;;;;5.82;2.17;;;16.10;99.90;;;;;;2079099;28;20036;-70
2022/07/06 04:19:40;;;;;;;5.63;2.30;;;16.30;99.90;;;;;;2079201;28;20088;-70
2022/07/06 04:20:40;;;;;;;5.95;2.17;;;16.50;99.90;;;;;;2078680;28;20504;-70
2022/07/06 04:21:41;;;;;;;8.45;1.95;;;16.60;99.90;;;;;;2078247;28;20099;-70
2022/07/06 04:22:41;;;;;;;3.60;2.20;;;16.70;99.90;;;;;;2078776;28;20537;-70
2022/07/06 04:23:42;;;;;;;3.28;1.77;;;16.80;99.90;;;;;;2076569;28;20017;-70
2022/07/06 04:24:43;;;;;;;2.90;1.80;;;16.80;99.90;;;;;;2078089;28;20029;-70
2022/07/06 04:25:43;;;;;;;4.25;2.30;;;16.80;99.90;;;;;;2076427;28;20021;-70
2022/07/06 04:26:44;;;;;;;4.22;1.75;;;16.90;99.90;;;;;;2078104;28;20501;-70
2022/07/06 04:27:45;;;;;;;3.05;1.70;;;17.00;99.90;;;;;;2076670;28;20108;-70
2022/07/06 04:28:46;;;;;;;3.65;1.80;;;17.00;99.90;;;;;;2077895;28;20017;-70
2022/07/06 04:29:46;;;;;;;4.88;1.70;;;17.10;99.90;;;;;;2078777;28;20029;-70
2022/07/06 04:30:47;;;;;;;7.88;2.50;;;17.10;99.90;;;;;;2079013;28;20044;-70
2022/07/06 04:31:47;;;;;;;4.72;2.13;;;17.10;99.90;;;;;;2080190;28;20473;-70
2022/07/06 04:32:48;;;;;;;6.00;2.60;;;17.00;99.90;;;;;;2079936;28;20032;-70
2022/07/06 04:33:49;;;;;;;3.63;1.77;;;17.00;99.90;;;;;;2079070;28;20024;-70
2022/07/06 04:34:49;;;;;;;6.80;2.58;;;17.00;99.90;;;;;;2079898;28;20645;-70
2022/07/06 04:35:50;;;;;;;6.63;2.50;;;17.00;99.90;;;;;;2078348;28;20036;-70
2022/07/06 04:36:50;;;;;;;3.45;2.10;;;17.00;99.90;;;;;;2077842;28;20032;-70
2022/07/06 04:37:51;;;;;;;5.78;2.45;;;17.00;99.90;;;;;;2079744;28;20116;-70
2022/07/06 04:38:52;;;;;;;3.20;2.13;;;17.00;99.90;;;;;;2078024;28;20108;-70
2022/07/06 04:39:52;;;;;;;4.45;2.47;;;17.00;99.90;;;;;;2077367;28;20022;-70
2022/07/06 04:40:53;;;;;;;6.18;2.28;;;17.00;99.90;;;;;;2078667;28;20465;-70
2022/07/06 04:41:53;;;;;;;4.90;2.33;;;17.00;99.90;;;;;;2079683;28;20049;-70
2022/07/06 04:42:54;;;;;;;6.07;2.75;;;17.10;99.90;;;;;;2077897;28;20045;-70
2022/07/06 04:43:55;;;;;;;10.18;2.67;;;17.20;99.90;;;;;;2076637;28;20063;-70
2022/07/06 04:44:55;;;;;;;7.20;2.72;;;17.20;99.90;;;;;;2078662;28;20044;-70
2022/07/06 04:45:56;;;;;;;4.07;2.80;;;17.30;99.90;;;;;;2079063;28;20864;-70
2022/07/06 04:46:56;;;;;;;9.02;3.10;;;17.40;99.90;;;;;;2079085;28;20031;-70
2022/07/06 04:47:57;;;;;;;4.53;2.40;;;17.50;99.90;;;;;;2080630;28;20099;-70
2022/07/06 04:48:58;;;;;;;5.20;2.40;;;17.60;99.90;;;;;;2080311;28;20075;-70
2022/07/06 04:49:58;;;;;;;5.13;2.05;;;17.70;99.90;;;;;;2078109;28;20049;-70
2022/07/06 04:50:59;;;;;;;5.18;2.50;;;17.80;99.90;;;;;;2078999;28;20056;-70
2022/07/06 04:52:00;;;;;;;3.38;1.92;;;17.90;99.90;;;;;;2080426;28;20021;-70
2022/07/06 04:53:00;;;;;;;6.68;2.00;;;18.00;99.90;;;;;;2080259;28;20120;-70
2022/07/06 04:54:01;;;;;;;6.32;2.25;;;18.00;99.90;;;;;;2078666;28;20025;-70
2022/07/06 04:55:04;;;;;;;4.65;1.85;;;18.10;99.90;;;;;;2079315;28;20068;-70
2022/07/06 04:56:05;;;;;;;4.60;1.98;;;18.20;99.90;;;;;;2078044;28;20022;-70
2022/07/06 04:57:06;;;;;;;5.68;1.98;;;18.20;99.90;;;;;;2076819;28;20025;-70
2022/07/06 04:58:06;;;;;;;5.15;2.22;;;18.30;99.90;;;;;;2079781;28;20033;-70
2022/07/06 04:59:07;;;;;;;3.85;2.00;;;18.40;99.90;;;;;;2079564;28;20026;-70
2022/07/06 05:00:08;;;;;;;3.63;1.70;;;18.50;99.90;;;;;;2079561;28;20033;-70
2022/07/06 05:01:09;;;;;;;2.30;1.50;;;18.60;99.90;;;;;;2079803;28;20029;-70
2022/07/06 05:02:09;;;;;;;3.22;1.50;;;18.60;99.90;;;;;;2078544;28;20030;-70
2022/07/06 05:03:10;;;;;;;5.35;1.88;;;18.70;99.90;;;;;;2078225;28;20028;-70
2022/07/06 05:04:10;;;;;;;6.07;1.95;;;18.80;99.90;;;;;;2077538;28;20381;-70
2022/07/06 05:05:11;;;;;;;6.18;2.22;;;18.90;99.90;;;;;;2077833;28;20547;-70
2022/07/06 05:06:12;;;;;;;3.55;1.50;;;18.90;98.40;;;;;;2081557;28;20033;-70
2022/07/06 05:07:12;;;;;;;3.90;1.63;;;19.10;98.10;;;;;;2078652;28;20021;-70
2022/07/06 05:08:13;;;;;;;5.07;1.90;;;19.10;97.40;;;;;;2077846;28;20026;-70
2022/07/06 05:09:14;;;;;;;4.22;1.58;;;19.20;97.40;;;;;;2076946;28;20030;-70
2022/07/06 05:10:15;;;;;;;6.20;1.65;;;19.20;97.80;;;;;;2081028;28;20022;-70
2022/07/06 05:11:16;;;;;;;4.63;1.60;;;19.30;97.30;;;;;;2077383;28;20034;-70
2022/07/06 05:12:16;;;;;;;7.43;1.80;;;19.40;97.00;;;;;;2075900;28;20029;-70
2022/07/06 05:13:18;;;;;;;3.20;1.60;;;19.50;96.20;;;;;;2081243;28;20031;-70
2022/07/06 05:14:18;;;;;;;7.15;1.65;;;19.60;95.70;;;;;;2079190;28;20618;-70
2022/07/06 05:15:19;;;;;;;2.22;1.65;;;19.60;95.80;;;;;;2077766;28;20440;-70
2022/07/06 05:16:23;;;;;;;3.97;1.50;;;19.70;94.80;;;;;;2075618;28;20060;-70
2022/07/06 05:17:24;;;;;;;3.42;1.30;;;19.80;95.40;;;;;;2074501;28;20026;-70
2022/07/06 05:18:24;;;;;;;4.63;1.85;;;19.90;94.30;;;;;;2078302;28;20090;-70
2022/07/06 05:19:25;;;;;;;4.05;1.95;;;20.00;94.00;;;;;;2077955;28;20312;-70
2022/07/06 05:20:25;;;;;;;5.22;1.95;;;20.10;93.30;;;;;;2078262;28;20028;-71